createdAt,value
2022-09-21T00:01:14.311Z,102208.13
2022-09-21T00:03:42.152Z,102209.72
2022-09-21T00:06:11.650Z,102199.03
2022-09-21T00:08:38.200Z,102197.09
2022-09-21T00:11:05.652Z,102196.78
2022-09-21T00:13:33.637Z,102201.25
2022-09-21T00:16:00.454Z,102208.78
2022-09-21T00:18:27.105Z,102206.72
2022-09-21T00:20:53.587Z,102205.03
2022-09-21T00:23:20.510Z,102204.47
2022-09-21T00:25:47.050Z,102205.72
2022-09-21T00:28:13.477Z,102209.66
2022-09-21T00:30:39.985Z,102209.19
2022-09-21T00:33:06.922Z,102209.38
2022-09-21T00:35:34.063Z,102197.94
2022-09-21T00:38:02.378Z,102215.94
2022-09-21T00:40:29.908Z,102216.41
2022-09-21T00:43:16.378Z,102210.59
2022-09-21T00:45:46.206Z,102211.09
2022-09-21T00:48:12.768Z,102219.38
2022-09-21T00:50:46.041Z,102212.16
2022-09-21T00:53:13.645Z,102212.81
2022-09-21T00:55:48.361Z,102216.75
2022-09-21T00:58:22.519Z,102217.69
2022-09-21T01:00:50.091Z,102219.75
2022-09-21T01:03:17.273Z,102219.13
2022-09-21T01:05:44.404Z,102224.63
2022-09-21T01:08:13.847Z,102212.59
2022-09-21T01:11:08.311Z,102223.00
2022-09-21T01:13:48.472Z,102225.72
2022-09-21T01:16:43.322Z,102226.06
2022-09-21T01:19:41.558Z,102235.28
2022-09-21T01:22:22.356Z,102226.53
2022-09-21T01:24:51.980Z,102231.38
2022-09-21T01:27:48.010Z,102224.25
2022-09-21T01:30:20.215Z,102221.81
2022-09-21T01:33:09.104Z,102230.00
2022-09-21T01:35:44.834Z,102230.69
2022-09-21T01:38:20.859Z,102229.59
2022-09-21T01:40:52.453Z,102235.19
2022-09-21T01:43:25.352Z,102229.78
2022-09-21T01:45:54.857Z,102236.91
2022-09-21T01:48:24.572Z,102235.66
2022-09-21T01:50:55.573Z,102236.72
2022-09-21T01:53:39.658Z,102233.31
2022-09-21T01:56:15.942Z,102226.63
2022-09-21T01:58:49.704Z,102224.56
2022-09-21T02:01:20.973Z,102234.78
2022-09-21T02:03:51.987Z,102234.34
2022-09-21T02:06:19.342Z,102225.59
2022-09-21T02:08:46.936Z,102229.16
2022-09-21T02:11:13.959Z,102231.25
2022-09-21T02:13:45.857Z,102231.25
2022-09-21T02:16:36.458Z,102237.44
2022-09-21T02:19:07.582Z,102231.94
2022-09-21T02:21:51.917Z,102233.78
2022-09-21T02:24:33.408Z,102237.31
2022-09-21T02:27:04.086Z,102229.53
2022-09-21T02:29:51.477Z,102233.09
2022-09-21T02:32:24.342Z,102231.94
2022-09-21T02:34:57.595Z,102234.25
2022-09-21T02:37:32.788Z,102235.75
2022-09-21T02:40:24.880Z,102235.66
2022-09-21T02:43:15.410Z,102239.09
2022-09-21T02:45:48.096Z,102233.59
2022-09-21T02:48:18.295Z,102226.00
2022-09-21T02:50:47.613Z,102240.13
2022-09-21T02:53:17.155Z,102226.25
2022-09-21T02:55:45.427Z,102231.63
2022-09-21T02:58:16.076Z,102223.28
2022-09-21T03:00:42.602Z,102222.31
2022-09-21T03:03:21.203Z,102228.91
2022-09-21T03:05:51.077Z,102226.16
2022-09-21T03:08:18.412Z,102220.50
2022-09-21T03:10:46.147Z,102221.75
2022-09-21T03:13:13.096Z,102221.66
2022-09-21T03:15:41.033Z,102227.41
2022-09-21T03:18:10.047Z,102229.34
2022-09-21T03:20:37.781Z,102218.34
2022-09-21T03:23:04.452Z,102234.75
2022-09-21T03:25:31.315Z,102242.56
2022-09-21T03:27:58.521Z,102238.56
2022-09-21T03:30:27.209Z,102242.09
2022-09-21T03:32:54.304Z,102240.06
2022-09-21T03:35:22.169Z,102241.53
2022-09-21T03:37:50.956Z,102244.38
2022-09-21T03:40:17.912Z,102240.00
2022-09-21T03:42:45.150Z,102245.88
2022-09-21T03:45:12.869Z,102245.03
2022-09-21T03:47:39.907Z,102228.75
2022-09-21T03:50:10.033Z,102241.59
2022-09-21T03:52:38.465Z,102237.16
2022-09-21T03:55:09.226Z,102243.00
2022-09-21T03:57:36.948Z,102252.88
2022-09-21T04:00:09.511Z,102248.97
2022-09-21T04:02:42.193Z,102243.91
2022-09-21T04:05:11.137Z,102251.00
2022-09-21T04:07:37.978Z,102249.06
2022-09-21T04:10:06.624Z,102249.88
2022-09-21T04:12:35.000Z,102248.00
2022-09-21T04:15:01.962Z,102248.25
2022-09-21T04:17:29.341Z,102244.38
2022-09-21T04:19:55.787Z,102233.91
2022-09-21T04:22:24.793Z,102242.16
2022-09-21T04:24:51.580Z,102256.28
2022-09-21T04:27:18.477Z,102256.63
2022-09-21T04:29:44.919Z,102252.75
2022-09-21T04:32:12.039Z,102251.13
2022-09-21T04:34:39.471Z,102254.59
2022-09-21T04:37:09.783Z,102242.50
2022-09-21T04:39:36.489Z,102252.16
2022-09-21T04:42:03.046Z,102254.22
2022-09-21T04:44:30.171Z,102252.38
2022-09-21T04:46:58.194Z,102253.97
2022-09-21T04:49:25.047Z,102260.28
2022-09-21T04:51:52.089Z,102253.28
2022-09-21T04:54:18.670Z,102251.69
2022-09-21T04:56:45.187Z,102264.88
2022-09-21T04:59:11.665Z,102263.63
2022-09-21T05:01:38.212Z,102258.44
2022-09-21T05:04:04.768Z,102270.59
2022-09-21T05:06:33.042Z,102273.94
2022-09-21T05:09:18.380Z,102275.75
2022-09-21T05:11:45.678Z,102280.25
2022-09-21T05:14:12.591Z,102261.66
2022-09-21T05:16:39.011Z,102273.94
2022-09-21T05:19:05.568Z,102272.00
2022-09-21T05:21:32.147Z,102267.00
2022-09-21T05:23:58.713Z,102267.84
2022-09-21T05:26:25.562Z,102277.09
2022-09-21T05:28:52.468Z,102284.44
2022-09-21T05:31:51.257Z,102285.59
2022-09-21T05:34:38.770Z,102286.53
2022-09-21T05:37:12.068Z,102285.84
2022-09-21T05:39:38.975Z,102291.47
2022-09-21T05:42:06.075Z,102290.34
2022-09-21T05:44:32.737Z,102295.97
2022-09-21T05:47:17.227Z,102289.97
2022-09-21T05:49:52.731Z,102287.19
2022-09-21T05:52:25.257Z,102295.81
2022-09-21T05:55:29.887Z,102297.22
2022-09-21T05:58:10.323Z,102303.06
2022-09-21T06:00:57.188Z,102309.09
2022-09-21T06:03:29.189Z,102311.25
2022-09-21T06:05:59.294Z,102296.34
2022-09-21T06:08:26.739Z,102309.00
2022-09-21T06:10:54.791Z,102316.19
2022-09-21T06:13:21.346Z,102312.88
2022-09-21T06:15:47.879Z,102303.00
2022-09-21T06:18:17.793Z,102315.47
2022-09-21T06:20:45.047Z,102324.31
2022-09-21T06:23:13.247Z,102322.00
2022-09-21T06:25:40.120Z,102313.28
2022-09-21T06:28:10.164Z,102323.75
2022-09-21T06:30:37.803Z,102326.63
2022-09-21T06:33:08.341Z,102303.31
2022-09-21T06:35:36.246Z,102323.91
2022-09-21T06:38:07.839Z,102328.53
2022-09-21T06:40:37.315Z,102325.66
2022-09-21T06:43:05.391Z,102326.34
2022-09-21T06:45:32.370Z,102316.00
2022-09-21T06:47:59.178Z,102325.78
2022-09-21T06:50:25.705Z,102319.78
2022-09-21T06:52:52.233Z,102322.41
2022-09-21T06:55:18.758Z,102323.44
2022-09-21T06:57:45.342Z,102324.47
2022-09-21T07:00:13.870Z,102325.94
2022-09-21T07:02:45.025Z,102322.59
2022-09-21T07:05:12.341Z,102314.06
2022-09-21T07:07:40.171Z,102319.19
2022-09-21T07:10:12.111Z,102322.63
2022-09-21T07:12:41.351Z,102314.53
2022-09-21T07:15:09.179Z,102311.16
2022-09-21T07:17:37.933Z,102312.38
2022-09-21T07:20:06.340Z,102318.19
2022-09-21T07:22:33.366Z,102321.22
2022-09-21T07:25:00.005Z,102315.19
2022-09-21T07:27:28.110Z,102325.41
2022-09-21T07:29:54.702Z,102319.34
2022-09-21T07:32:21.271Z,102319.63
2022-09-21T07:34:48.266Z,102319.06
2022-09-21T07:37:15.192Z,102317.38
2022-09-21T07:39:41.773Z,102322.81
2022-09-21T07:42:08.535Z,102321.50
2022-09-21T07:44:34.968Z,102330.53
2022-09-21T07:47:03.508Z,102315.72
2022-09-21T07:49:30.180Z,102321.16
2022-09-21T07:52:01.424Z,102314.31
2022-09-21T07:54:29.485Z,102320.88
2022-09-21T07:57:14.542Z,102321.16
2022-09-21T07:59:41.008Z,102323.88
2022-09-21T08:02:07.660Z,102317.81
2022-09-21T08:04:34.263Z,102317.28
2022-09-21T08:07:00.684Z,102332.22
2022-09-21T08:09:27.104Z,102325.31
2022-09-21T08:11:55.664Z,102318.34
2022-09-21T08:14:26.062Z,102325.78
2022-09-21T08:16:53.157Z,102320.47
2022-09-21T08:19:20.369Z,102319.06
2022-09-21T08:21:53.497Z,102317.72
2022-09-21T08:24:22.950Z,102320.75
2022-09-21T08:26:52.201Z,102324.97
2022-09-21T08:29:18.996Z,102329.19
2022-09-21T08:31:46.805Z,102328.53
2022-09-21T08:34:14.204Z,102320.34
2022-09-21T08:36:41.012Z,102329.59
2022-09-21T08:39:08.834Z,102327.78
2022-09-21T08:42:13.265Z,102330.38
2022-09-21T08:45:01.855Z,102328.94
2022-09-21T08:47:43.779Z,102329.50
2022-09-21T08:50:32.050Z,102316.06
2022-09-21T08:53:04.656Z,102325.28
2022-09-21T08:55:31.415Z,102324.16
2022-09-21T08:57:59.353Z,102324.66
2022-09-21T09:00:26.145Z,102330.28
2022-09-21T09:03:12.351Z,102322.84
2022-09-21T09:06:01.574Z,102326.94
2022-09-21T09:08:52.280Z,102331.34
2022-09-21T09:11:54.327Z,102328.22
2022-09-21T09:14:39.382Z,102327.47
2022-09-21T09:17:24.276Z,102333.88
2022-09-21T09:19:58.472Z,102332.31
2022-09-21T09:22:40.177Z,102327.97
2022-09-21T09:25:17.780Z,102339.16
2022-09-21T09:27:48.229Z,102339.59
2022-09-21T09:30:17.493Z,102339.59
2022-09-21T09:32:56.613Z,102334.78
2022-09-21T09:35:29.481Z,102335.97
2022-09-21T09:38:23.593Z,102342.72
2022-09-21T09:41:10.255Z,102334.72
2022-09-21T09:43:53.447Z,102335.06
2022-09-21T09:46:35.401Z,102341.81
2022-09-21T09:49:20.197Z,102342.28
2022-09-21T09:51:47.966Z,102342.28
2022-09-21T09:54:17.322Z,102338.66
2022-09-21T09:56:44.135Z,102329.06
2022-09-21T09:59:19.291Z,102329.78
2022-09-21T10:01:47.311Z,102328.53
2022-09-21T10:04:17.417Z,102316.94
2022-09-21T10:06:46.804Z,102323.75
2022-09-21T10:09:32.927Z,102325.78
2022-09-21T10:12:16.939Z,102338.66
2022-09-21T10:14:51.362Z,102336.31
2022-09-21T10:17:19.089Z,102330.69
2022-09-21T10:19:46.421Z,102334.34
2022-09-21T10:22:20.321Z,102329.94
2022-09-21T10:24:51.465Z,102327.53
2022-09-21T10:27:25.444Z,102335.16
2022-09-21T10:29:52.003Z,102326.75
2022-09-21T10:32:22.165Z,102332.34
2022-09-21T10:35:13.067Z,102325.16
2022-09-21T10:37:43.833Z,102317.19
2022-09-21T10:40:19.347Z,102330.75
2022-09-21T10:42:48.291Z,102325.13
2022-09-21T10:45:26.952Z,102329.13
2022-09-21T10:48:13.928Z,102320.28
2022-09-21T10:50:42.643Z,102320.25
2022-09-21T10:53:09.060Z,102320.69
2022-09-21T10:55:44.072Z,102316.25
2022-09-21T10:58:19.499Z,102307.44
2022-09-21T11:00:51.889Z,102317.81
2022-09-21T11:03:30.322Z,102317.00
2022-09-21T11:06:03.283Z,102310.97
2022-09-21T11:08:56.161Z,102308.94
2022-09-21T11:11:55.632Z,102308.13
2022-09-21T11:14:28.207Z,102307.28
2022-09-21T11:17:12.607Z,102311.25
2022-09-21T11:19:42.558Z,102305.59
2022-09-21T11:22:42.806Z,102303.56
2022-09-21T11:25:20.458Z,102301.47
2022-09-21T11:28:13.880Z,102302.63
2022-09-21T11:31:01.286Z,102301.44
2022-09-21T11:33:39.988Z,102304.63
2022-09-21T11:36:12.587Z,102303.81
2022-09-21T11:39:16.968Z,102289.03
2022-09-21T11:41:58.971Z,102287.41
2022-09-21T11:44:53.135Z,102283.84
2022-09-21T11:47:34.677Z,102287.81
2022-09-21T11:50:33.661Z,102287.88
2022-09-21T11:53:22.599Z,102281.06
2022-09-21T11:56:11.765Z,102281.44
2022-09-21T11:58:53.314Z,102283.88
2022-09-21T12:01:38.019Z,102277.06
2022-09-21T12:04:11.179Z,102268.59
2022-09-21T12:06:56.398Z,102269.72
2022-09-21T12:09:38.141Z,102268.53
2022-09-21T12:12:16.655Z,102268.88
2022-09-21T12:14:59.709Z,102265.41
2022-09-21T12:17:35.119Z,102263.75
2022-09-21T12:20:21.731Z,102268.06
2022-09-21T12:22:50.101Z,102256.34
2022-09-21T12:25:38.518Z,102247.13
2022-09-21T12:28:18.238Z,102253.47
2022-09-21T12:30:51.262Z,102249.09
2022-09-21T12:33:31.125Z,102245.41
2022-09-21T12:36:10.643Z,102252.84
2022-09-21T12:38:46.246Z,102251.66
2022-09-21T12:41:37.753Z,102248.88
2022-09-21T12:44:15.402Z,102235.78
2022-09-21T12:46:51.821Z,102243.50
2022-09-21T12:49:29.773Z,102241.84
2022-09-21T12:52:01.434Z,102237.50
2022-09-21T12:54:46.832Z,102236.81
2022-09-21T12:57:53.686Z,102228.84
2022-09-21T13:00:22.158Z,102232.97
2022-09-21T13:02:55.823Z,102227.69
2022-09-21T13:05:28.260Z,102219.19
2022-09-21T13:08:04.551Z,102218.69
2022-09-21T13:10:49.237Z,102219.50
2022-09-21T13:13:45.892Z,102224.69
2022-09-21T13:16:31.222Z,102218.41
2022-09-21T13:19:02.917Z,102226.38
2022-09-21T13:21:31.224Z,102224.38
2022-09-21T13:24:03.601Z,102210.47
2022-09-21T13:27:06.871Z,102219.13
2022-09-21T13:29:36.012Z,102213.38
2022-09-21T13:32:11.468Z,102209.59
2022-09-21T13:34:39.062Z,102212.84
2022-09-21T13:37:19.491Z,102211.88
2022-09-21T13:39:55.688Z,102208.19
2022-09-21T13:42:37.003Z,102203.75
2022-09-21T13:45:15.669Z,102206.66
2022-09-21T13:47:45.294Z,102200.41
2022-09-21T13:50:18.109Z,102200.06
2022-09-21T13:52:52.031Z,102201.88
2022-09-21T13:55:24.662Z,102198.56
2022-09-21T13:57:55.796Z,102187.66
2022-09-21T14:00:22.334Z,102184.94
2022-09-21T14:02:49.089Z,102187.28
2022-09-21T14:05:43.516Z,102195.31
2022-09-21T14:08:16.221Z,102179.88
2022-09-21T14:10:52.361Z,102186.69
2022-09-21T14:13:39.121Z,102182.81
2022-09-21T14:16:37.370Z,102183.69
2022-09-21T14:19:26.719Z,102178.41
2022-09-21T14:22:08.501Z,102175.47
2022-09-21T14:24:36.183Z,102166.28
2022-09-21T14:27:13.468Z,102172.97
2022-09-21T14:29:53.028Z,102177.84
2022-09-21T14:32:24.797Z,102175.03
2022-09-21T14:34:57.088Z,102178.53
2022-09-21T14:37:52.083Z,102159.38
2022-09-21T14:40:28.902Z,102168.38
2022-09-21T14:42:58.788Z,102173.19
2022-09-21T14:45:46.137Z,102164.75
2022-09-21T14:48:37.396Z,102164.97
2022-09-21T14:51:17.101Z,102165.72
2022-09-21T14:54:02.188Z,102159.97
2022-09-21T14:56:56.801Z,102155.56
2022-09-21T14:59:29.137Z,102163.44
2022-09-21T15:02:00.029Z,102154.50
2022-09-21T15:04:29.449Z,102152.13
2022-09-21T15:07:26.772Z,102140.53
2022-09-21T15:10:45.210Z,102144.22
2022-09-21T15:13:23.944Z,102137.13
2022-09-21T15:16:11.932Z,102133.94
2022-09-21T15:18:42.489Z,102130.16
2022-09-21T15:21:21.929Z,102122.53
2022-09-21T15:23:51.414Z,102128.88
2022-09-21T15:26:26.439Z,102121.69
2022-09-21T15:29:09.646Z,102126.81
2022-09-21T15:31:42.013Z,102136.13
2022-09-21T15:34:13.117Z,102125.56
2022-09-21T15:36:42.157Z,102127.38
2022-09-21T15:39:27.794Z,102107.47
2022-09-21T15:42:09.502Z,102121.34
2022-09-21T15:44:37.976Z,102118.09
2022-09-21T15:47:08.473Z,102111.00
2022-09-21T15:49:36.227Z,102114.53
2022-09-21T15:52:12.863Z,102112.44
2022-09-21T15:54:52.111Z,102117.50
2022-09-21T15:57:28.483Z,102106.16
2022-09-21T15:59:56.184Z,102116.25
2022-09-21T16:02:26.828Z,102111.25
2022-09-21T16:04:53.484Z,102102.41
2022-09-21T16:07:35.557Z,102105.31
2022-09-21T16:10:13.624Z,102101.13
2022-09-21T16:12:41.405Z,102110.53
2022-09-21T16:15:23.135Z,102117.84
2022-09-21T16:18:05.119Z,102104.47
2022-09-21T16:20:47.376Z,102108.66
2022-09-21T16:23:17.361Z,102108.03
2022-09-21T16:25:43.956Z,102101.41
2022-09-21T16:28:16.322Z,102106.47
2022-09-21T16:30:53.431Z,102098.69
2022-09-21T16:33:41.119Z,102106.44
2022-09-21T16:36:20.071Z,102110.94
2022-09-21T16:38:55.665Z,102105.09
2022-09-21T16:41:24.772Z,102113.94
2022-09-21T16:43:52.059Z,102117.25
2022-09-21T16:46:18.928Z,102118.13
2022-09-21T16:48:45.451Z,102101.84
2022-09-21T16:51:13.555Z,102118.28
2022-09-21T16:53:40.165Z,102116.03
2022-09-21T16:56:14.310Z,102122.53
2022-09-21T16:58:43.071Z,102114.66
2022-09-21T17:01:15.423Z,102106.72
2022-09-21T17:03:42.466Z,102112.75
2022-09-21T17:06:15.756Z,102109.25
2022-09-21T17:08:42.307Z,102109.66
2022-09-21T17:11:08.761Z,102106.50
2022-09-21T17:13:35.301Z,102103.75
2022-09-21T17:16:02.139Z,102111.38
2022-09-21T17:18:29.151Z,102115.03
2022-09-21T17:20:55.726Z,102106.69
2022-09-21T17:23:27.559Z,102109.16
2022-09-21T17:25:54.031Z,102116.38
2022-09-21T17:28:26.101Z,102115.63
2022-09-21T17:30:54.177Z,102118.44
2022-09-21T17:33:21.462Z,102117.25
2022-09-21T17:35:50.966Z,102121.69
2022-09-21T17:38:18.158Z,102124.91
2022-09-21T17:40:45.170Z,102126.91
2022-09-21T17:43:29.640Z,102126.09
2022-09-21T17:46:08.002Z,102129.69
2022-09-21T17:48:35.683Z,102122.94
2022-09-21T17:51:02.642Z,102127.69
2022-09-21T17:53:37.342Z,102133.28
2022-09-21T17:56:28.550Z,102143.63
2022-09-21T17:59:02.784Z,102128.03
2022-09-21T18:01:32.246Z,102134.78
2022-09-21T18:03:58.946Z,102134.38
2022-09-21T18:06:25.973Z,102133.94
2022-09-21T18:08:53.787Z,102137.50
2022-09-21T18:12:18.091Z,102138.66
2022-09-21T18:14:57.561Z,102140.63
2022-09-21T18:17:51.160Z,102140.56
2022-09-21T18:20:47.715Z,102137.34
2022-09-21T18:23:21.590Z,102144.47
2022-09-21T18:25:52.860Z,102137.25
2022-09-21T18:28:34.472Z,102148.78
2022-09-21T18:31:18.991Z,102144.34
2022-09-21T18:34:00.227Z,102132.72
2022-09-21T18:36:48.557Z,102135.84
2022-09-21T18:39:23.795Z,102152.88
2022-09-21T18:42:22.839Z,102154.81
2022-09-21T18:45:12.475Z,102154.38
2022-09-21T18:47:44.329Z,102155.88
2022-09-21T18:50:23.623Z,102150.22
2022-09-21T18:52:54.104Z,102156.59
2022-09-21T18:55:31.149Z,102153.31
2022-09-21T18:57:59.785Z,102153.25
2022-09-21T19:00:31.785Z,102148.84
2022-09-21T19:03:17.096Z,102147.22
2022-09-21T19:06:12.796Z,102156.66
2022-09-21T19:08:48.650Z,102150.63
2022-09-21T19:11:44.281Z,102155.31
2022-09-21T19:14:28.352Z,102149.69
2022-09-21T19:17:13.743Z,102152.44
2022-09-21T19:19:49.444Z,102149.66
2022-09-21T19:22:24.523Z,102158.38
2022-09-21T19:25:07.958Z,102148.41
2022-09-21T19:27:39.808Z,102153.88
2022-09-21T19:30:09.429Z,102148.63
2022-09-21T19:32:49.442Z,102149.31
2022-09-21T19:35:30.035Z,102150.06
2022-09-21T19:37:59.597Z,102157.53
2022-09-21T19:40:32.416Z,102157.94
2022-09-21T19:43:08.135Z,102157.81
2022-09-21T19:45:56.112Z,102145.50
2022-09-21T19:48:27.164Z,102150.28
2022-09-21T19:50:57.153Z,102140.28
2022-09-21T19:53:42.784Z,102148.53
2022-09-21T19:56:31.668Z,102156.03
2022-09-21T19:59:17.205Z,102148.00
2022-09-21T20:02:01.235Z,102153.00
2022-09-21T20:04:40.622Z,102146.31
2022-09-21T20:07:30.001Z,102143.81
2022-09-21T20:10:24.715Z,102148.53
2022-09-21T20:13:23.807Z,102154.84
2022-09-21T20:15:57.052Z,102154.28
2022-09-21T20:18:32.371Z,102156.22
2022-09-21T20:20:58.815Z,102153.03
2022-09-21T20:23:25.606Z,102150.19
2022-09-21T20:26:05.148Z,102156.06
2022-09-21T20:28:31.853Z,102157.22
2022-09-21T20:30:58.440Z,102149.97
2022-09-21T20:33:26.890Z,102157.44
2022-09-21T20:35:55.351Z,102166.94
2022-09-21T20:38:22.566Z,102154.06
2022-09-21T20:40:49.598Z,102156.41
2022-09-21T20:43:16.181Z,102161.91
2022-09-21T20:45:47.683Z,102159.13
2022-09-21T20:48:14.345Z,102161.09
2022-09-21T20:50:42.586Z,102143.44
2022-09-21T20:53:09.791Z,102157.47
2022-09-21T20:55:37.050Z,102157.03
2022-09-21T20:58:03.530Z,102159.28
2022-09-21T21:00:30.547Z,102152.50
2022-09-21T21:03:01.386Z,102158.06
2022-09-21T21:05:29.176Z,102153.97
2022-09-21T21:07:56.541Z,102153.03
2022-09-21T21:10:23.605Z,102138.31
2022-09-21T21:12:50.566Z,102138.63
2022-09-21T21:15:17.441Z,102148.19
2022-09-21T21:17:43.882Z,102142.94
2022-09-21T21:20:10.819Z,102146.88
2022-09-21T21:22:37.527Z,102143.53
2022-09-21T21:25:04.511Z,102141.19
2022-09-21T21:27:31.453Z,102149.97
2022-09-21T21:29:58.492Z,102147.91
2022-09-21T21:32:26.491Z,102152.66
2022-09-21T21:34:54.103Z,102153.38
2022-09-21T21:37:24.899Z,102156.97
2022-09-21T21:39:52.393Z,102150.56
2022-09-21T21:42:20.634Z,102156.84
2022-09-21T21:44:48.140Z,102157.13
2022-09-21T21:47:38.241Z,102160.59
2022-09-21T21:50:01.364Z,102155.00
2022-09-21T21:52:27.773Z,102153.34
2022-09-21T21:54:54.647Z,102148.63
2022-09-21T21:57:21.097Z,102152.88
2022-09-21T21:59:47.652Z,102134.53
2022-09-21T22:02:15.352Z,102143.56
2022-09-21T22:04:42.224Z,102145.13
2022-09-21T22:07:08.670Z,102138.63
2022-09-21T22:09:35.192Z,102142.66
2022-09-21T22:12:02.471Z,102138.19
2022-09-21T22:14:29.020Z,102135.72
2022-09-21T22:16:55.663Z,102140.72
2022-09-21T22:19:22.170Z,102134.31
2022-09-21T22:21:53.868Z,102137.47
2022-09-21T22:24:21.547Z,102139.00
2022-09-21T22:26:51.515Z,102143.28
2022-09-21T22:29:18.061Z,102135.78
2022-09-21T22:31:47.071Z,102131.41
2022-09-21T22:34:14.580Z,102131.78
2022-09-21T22:36:43.313Z,102126.91
2022-09-21T22:39:10.184Z,102132.03
2022-09-21T22:41:39.238Z,102126.81
2022-09-21T22:44:06.461Z,102129.56
2022-09-21T22:46:33.673Z,102131.09
2022-09-21T22:49:00.670Z,102127.53
2022-09-21T22:51:29.221Z,102130.22
2022-09-21T22:53:56.503Z,102120.59
2022-09-21T22:56:25.793Z,102132.84
2022-09-21T22:58:54.906Z,102118.56
2022-09-21T23:01:29.664Z,102116.16
2022-09-21T23:04:01.267Z,102124.44
2022-09-21T23:06:32.517Z,102114.41
2022-09-21T23:09:00.042Z,102118.66
2022-09-21T23:11:29.486Z,102121.00
2022-09-21T23:13:57.473Z,102106.53
2022-09-21T23:16:25.409Z,102119.53
2022-09-21T23:18:52.321Z,102114.75
2022-09-21T23:21:22.869Z,102124.28
2022-09-21T23:23:49.798Z,102119.47
2022-09-21T23:26:26.289Z,102120.66
2022-09-21T23:28:55.445Z,102118.66
2022-09-21T23:31:23.143Z,102111.44
2022-09-21T23:33:51.550Z,102120.28
2022-09-21T23:36:21.080Z,102115.03
2022-09-21T23:38:48.480Z,102122.97
2022-09-21T23:41:20.556Z,102121.34
2022-09-21T23:43:47.808Z,102104.50
2022-09-21T23:46:19.835Z,102113.69
2022-09-21T23:48:46.874Z,102104.44
2022-09-21T23:51:13.893Z,102117.09
2022-09-21T23:53:41.030Z,102115.31
2022-09-21T23:56:09.114Z,102110.75
2022-09-21T23:58:35.540Z,102113.88
